Airfield :
LOGIN :

Register | Disclaimer

   EN    FR    IT 

 










Legend :    VFR   Marginal VFR   IFR   Intensive IFR   Very Intensive IFR
Visi :
Ceiling :
>= 8 km
>= 3000ft
5 to 8 km
1000 to 3000 ft
1500m to 5 km
500 to 1000 ft
800 to 1500m
200 to 500 ft
< 800m
< 200 ft
Symbols :   Thunderstorms  Fog  Heavy snow  Heavy precipitations  Wind > 20 kt
SIGMETs :     Misc.  Thunderstorms  Icing  Turbulence  Mountain Waves  Volcanic Ashes







- Airport Elevation : 545 ft
- IATA code : PZY


LZPP - Piešťany

CURRENT METAR :
  • 211300Z VRB04KT CAVOK 30/13 Q1011

EXPIRED METARs :
  • 211230Z 16004KT 120V210 CAVOK 30/12 Q1011
  • 211200Z 18004KT 140V240 CAVOK 30/13 Q1011
  • 211130Z 10005KT 040V180 CAVOK 30/14 Q1012
  • 211100Z 16005KT 100V260 CAVOK 29/14 Q1012
  • 211030Z 18003KT 110V260 CAVOK 29/14 Q1012
  • 211000Z VRB04KT CAVOK 29/14 Q1012

TAF TAF LZPP
Valid from the 21 at 12:00 until the 21 at 21:00 UTC


211100Z 2112/2121 02007KT CAVOK
TEMPO 2112/2118 18012KT 9999 -SHRA FEW040CB BKN050
No reported NOTAMs for that airfield.



MET'MAP, your aeronautical weather chart ! - Copyright ORBIFLY December 2007 - Disclaimer

ORBIFLY MET'MAP TEAM :

Programming & Development : Alexandra Zaïnal
Concept & Development : Baudouin d'Aumeries
Co-Development & Prog : Marc-Olivier Méhu
Technical & hardware support : Manuel Goepfert

Contact : metmap@orbifly.com




SOURCES & CREDITS :

   NOAA